sensor_id;sensor_type;location;lat;lon;timestamp;P1;durP1;ratioP1;P2;durP2;ratioP2
41293;SDS011;27037;52.010;4.446;2023-04-25T00:00:05;25.88;;;4.18;;
41293;SDS011;27037;52.010;4.446;2023-04-25T00:02:32;28.65;;;4.60;;
41293;SDS011;27037;52.010;4.446;2023-04-25T00:04:59;28.05;;;4.47;;
41293;SDS011;27037;52.010;4.446;2023-04-25T00:07:26;27.98;;;4.30;;
41293;SDS011;27037;52.010;4.446;2023-04-25T00:09:52;21.35;;;4.18;;
41293;SDS011;27037;52.010;4.446;2023-04-25T00:12:18;23.17;;;3.85;;
41293;SDS011;27037;52.010;4.446;2023-04-25T00:14:43;26.02;;;4.30;;
41293;SDS011;27037;52.010;4.446;2023-04-25T00:17:10;26.20;;;4.95;;
41293;SDS011;27037;52.010;4.446;2023-04-25T00:19:36;29.20;;;4.45;;
41293;SDS011;27037;52.010;4.446;2023-04-25T00:22:02;18.60;;;3.95;;
41293;SDS011;27037;52.010;4.446;2023-04-25T00:24:28;21.05;;;4.60;;
41293;SDS011;27037;52.010;4.446;2023-04-25T00:26:54;22.10;;;3.88;;
41293;SDS011;27037;52.010;4.446;2023-04-25T00:29:20;20.00;;;3.95;;
41293;SDS011;27037;52.010;4.446;2023-04-25T00:31:45;18.33;;;4.30;;
41293;SDS011;27037;52.010;4.446;2023-04-25T00:34:11;16.40;;;4.28;;
41293;SDS011;27037;52.010;4.446;2023-04-25T00:36:37;19.48;;;3.88;;
41293;SDS011;27037;52.010;4.446;2023-04-25T00:39:03;21.48;;;3.83;;
41293;SDS011;27037;52.010;4.446;2023-04-25T00:41:29;20.58;;;3.80;;
41293;SDS011;27037;52.010;4.446;2023-04-25T00:43:55;22.20;;;4.63;;
41293;SDS011;27037;52.010;4.446;2023-04-25T00:46:22;18.60;;;3.90;;
41293;SDS011;27037;52.010;4.446;2023-04-25T00:48:48;21.70;;;3.78;;
41293;SDS011;27037;52.010;4.446;2023-04-25T00:51:15;14.00;;;3.85;;
41293;SDS011;27037;52.010;4.446;2023-04-25T00:53:46;20.13;;;4.28;;
41293;SDS011;27037;52.010;4.446;2023-04-25T00:56:14;17.27;;;3.20;;
41293;SDS011;27037;52.010;4.446;2023-04-25T00:58:40;17.20;;;3.83;;
41293;SDS011;27037;52.010;4.446;2023-04-25T01:01:06;15.23;;;3.40;;
41293;SDS011;27037;52.010;4.446;2023-04-25T01:03:33;17.23;;;4.00;;
41293;SDS011;27037;52.010;4.446;2023-04-25T01:06:01;14.52;;;3.60;;
41293;SDS011;27037;52.010;4.446;2023-04-25T01:08:27;14.13;;;3.47;;
41293;SDS011;27037;52.010;4.446;2023-04-25T01:10:53;16.42;;;3.35;;
41293;SDS011;27037;52.010;4.446;2023-04-25T01:13:19;24.92;;;4.55;;
41293;SDS011;27037;52.010;4.446;2023-04-25T01:15:45;18.95;;;3.60;;
41293;SDS011;27037;52.010;4.446;2023-04-25T01:18:10;19.50;;;3.40;;
41293;SDS011;27037;52.010;4.446;2023-04-25T01:20:46;16.73;;;4.18;;
41293;SDS011;27037;52.010;4.446;2023-04-25T01:23:15;17.77;;;3.50;;
41293;SDS011;27037;52.010;4.446;2023-04-25T01:25:41;14.32;;;3.13;;
41293;SDS011;27037;52.010;4.446;2023-04-25T01:28:07;15.23;;;3.10;;
41293;SDS011;27037;52.010;4.446;2023-04-25T01:30:33;18.42;;;3.55;;
41293;SDS011;27037;52.010;4.446;2023-04-25T01:33:00;14.85;;;3.15;;
41293;SDS011;27037;52.010;4.446;2023-04-25T01:35:29;17.42;;;3.20;;
41293;SDS011;27037;52.010;4.446;2023-04-25T01:37:54;14.30;;;3.30;;
41293;SDS011;27037;52.010;4.446;2023-04-25T01:40:20;11.05;;;3.10;;
41293;SDS011;27037;52.010;4.446;2023-04-25T01:42:47;15.32;;;3.25;;
41293;SDS011;27037;52.010;4.446;2023-04-25T01:45:13;18.10;;;3.70;;
41293;SDS011;27037;52.010;4.446;2023-04-25T01:47:38;17.75;;;3.65;;
41293;SDS011;27037;52.010;4.446;2023-04-25T01:50:05;16.63;;;3.53;;
41293;SDS011;27037;52.010;4.446;2023-04-25T01:52:32;14.38;;;3.50;;
41293;SDS011;27037;52.010;4.446;2023-04-25T01:54:59;18.08;;;3.30;;
41293;SDS011;27037;52.010;4.446;2023-04-25T01:57:26;15.65;;;3.20;;
41293;SDS011;27037;52.010;4.446;2023-04-25T01:59:53;12.00;;;3.15;;
41293;SDS011;27037;52.010;4.446;2023-04-25T02:02:24;13.18;;;2.92;;
41293;SDS011;27037;52.010;4.446;2023-04-25T02:04:50;16.42;;;3.40;;
41293;SDS011;27037;52.010;4.446;2023-04-25T02:07:15;20.77;;;3.70;;
41293;SDS011;27037;52.010;4.446;2023-04-25T02:09:41;21.10;;;3.53;;
41293;SDS011;27037;52.010;4.446;2023-04-25T02:12:07;12.65;;;2.80;;
41293;SDS011;27037;52.010;4.446;2023-04-25T02:14:33;12.95;;;2.78;;
41293;SDS011;27037;52.010;4.446;2023-04-25T02:16:59;20.33;;;3.75;;
41293;SDS011;27037;52.010;4.446;2023-04-25T02:19:25;16.17;;;3.08;;
41293;SDS011;27037;52.010;4.446;2023-04-25T02:21:50;13.02;;;3.30;;
41293;SDS011;27037;52.010;4.446;2023-04-25T02:24:16;13.10;;;3.40;;
41293;SDS011;27037;52.010;4.446;2023-04-25T02:26:41;15.70;;;3.28;;
41293;SDS011;27037;52.010;4.446;2023-04-25T02:29:07;18.27;;;3.00;;
41293;SDS011;27037;52.010;4.446;2023-04-25T02:31:32;17.23;;;3.55;;
41293;SDS011;27037;52.010;4.446;2023-04-25T02:33:58;13.20;;;2.63;;
41293;SDS011;27037;52.010;4.446;2023-04-25T02:36:24;15.63;;;3.13;;
41293;SDS011;27037;52.010;4.446;2023-04-25T02:38:49;16.10;;;3.22;;
41293;SDS011;27037;52.010;4.446;2023-04-25T02:41:15;17.35;;;3.20;;
41293;SDS011;27037;52.010;4.446;2023-04-25T02:43:40;18.48;;;3.15;;
41293;SDS011;27037;52.010;4.446;2023-04-25T02:46:06;14.40;;;3.28;;
41293;SDS011;27037;52.010;4.446;2023-04-25T02:48:32;17.20;;;3.50;;
41293;SDS011;27037;52.010;4.446;2023-04-25T02:50:58;19.10;;;3.03;;
41293;SDS011;27037;52.010;4.446;2023-04-25T02:53:23;12.10;;;2.72;;
41293;SDS011;27037;52.010;4.446;2023-04-25T02:55:49;11.77;;;2.25;;
41293;SDS011;27037;52.010;4.446;2023-04-25T02:58:15;14.57;;;2.67;;
41293;SDS011;27037;52.010;4.446;2023-04-25T03:00:40;12.20;;;2.20;;
41293;SDS011;27037;52.010;4.446;2023-04-25T03:03:06;18.48;;;2.53;;
41293;SDS011;27037;52.010;4.446;2023-04-25T03:05:31;9.43;;;2.03;;
41293;SDS011;27037;52.010;4.446;2023-04-25T03:07:57;11.05;;;2.50;;
41293;SDS011;27037;52.010;4.446;2023-04-25T03:10:23;16.95;;;2.78;;
41293;SDS011;27037;52.010;4.446;2023-04-25T03:12:49;9.80;;;2.63;;
41293;SDS011;27037;52.010;4.446;2023-04-25T03:15:15;9.85;;;2.15;;
41293;SDS011;27037;52.010;4.446;2023-04-25T03:17:41;10.02;;;2.45;;
41293;SDS011;27037;52.010;4.446;2023-04-25T03:20:07;14.50;;;2.80;;
41293;SDS011;27037;52.010;4.446;2023-04-25T03:22:33;11.60;;;2.58;;
41293;SDS011;27037;52.010;4.446;2023-04-25T03:24:59;14.35;;;2.45;;
41293;SDS011;27037;52.010;4.446;2023-04-25T03:27:25;16.98;;;2.53;;
41293;SDS011;27037;52.010;4.446;2023-04-25T03:29:50;8.98;;;2.40;;
41293;SDS011;27037;52.010;4.446;2023-04-25T03:32:16;17.60;;;2.67;;
41293;SDS011;27037;52.010;4.446;2023-04-25T03:34:42;11.15;;;2.33;;
41293;SDS011;27037;52.010;4.446;2023-04-25T03:37:07;17.65;;;2.63;;
41293;SDS011;27037;52.010;4.446;2023-04-25T03:39:33;20.27;;;2.72;;
41293;SDS011;27037;52.010;4.446;2023-04-25T03:41:58;15.85;;;2.40;;
41293;SDS011;27037;52.010;4.446;2023-04-25T03:44:24;14.63;;;2.50;;
41293;SDS011;27037;52.010;4.446;2023-04-25T03:46:50;18.17;;;2.78;;
41293;SDS011;27037;52.010;4.446;2023-04-25T03:49:16;13.10;;;2.42;;
41293;SDS011;27037;52.010;4.446;2023-04-25T03:51:41;11.43;;;2.53;;
41293;SDS011;27037;52.010;4.446;2023-04-25T03:54:07;17.10;;;2.40;;
41293;SDS011;27037;52.010;4.446;2023-04-25T03:56:32;10.80;;;2.10;;
41293;SDS011;27037;52.010;4.446;2023-04-25T03:58:58;16.50;;;2.55;;
41293;SDS011;27037;52.010;4.446;2023-04-25T04:01:24;15.13;;;2.50;;
41293;SDS011;27037;52.010;4.446;2023-04-25T04:03:50;11.07;;;2.30;;
41293;SDS011;27037;52.010;4.446;2023-04-25T04:06:16;9.48;;;2.35;;
41293;SDS011;27037;52.010;4.446;2023-04-25T04:08:41;11.48;;;2.30;;
41293;SDS011;27037;52.010;4.446;2023-04-25T04:11:07;18.40;;;2.67;;
41293;SDS011;27037;52.010;4.446;2023-04-25T04:13:32;12.27;;;2.20;;
41293;SDS011;27037;52.010;4.446;2023-04-25T04:15:58;15.15;;;2.50;;
41293;SDS011;27037;52.010;4.446;2023-04-25T04:18:24;15.10;;;2.40;;
41293;SDS011;27037;52.010;4.446;2023-04-25T04:20:49;10.95;;;2.75;;
41293;SDS011;27037;52.010;4.446;2023-04-25T04:23:15;17.75;;;2.50;;
41293;SDS011;27037;52.010;4.446;2023-04-25T04:25:41;10.02;;;2.50;;
41293;SDS011;27037;52.010;4.446;2023-04-25T04:28:06;10.90;;;2.17;;
41293;SDS011;27037;52.010;4.446;2023-04-25T04:30:32;19.48;;;2.30;;
41293;SDS011;27037;52.010;4.446;2023-04-25T04:33:01;15.95;;;2.17;;
41293;SDS011;27037;52.010;4.446;2023-04-25T04:35:27;15.05;;;2.10;;
41293;SDS011;27037;52.010;4.446;2023-04-25T04:37:53;16.40;;;2.25;;
41293;SDS011;27037;52.010;4.446;2023-04-25T04:40:19;13.07;;;2.22;;
41293;SDS011;27037;52.010;4.446;2023-04-25T04:42:47;7.22;;;2.33;;
41293;SDS011;27037;52.010;4.446;2023-04-25T04:45:13;15.95;;;2.30;;
41293;SDS011;27037;52.010;4.446;2023-04-25T04:47:39;7.70;;;2.38;;
41293;SDS011;27037;52.010;4.446;2023-04-25T04:50:08;19.80;;;2.45;;
41293;SDS011;27037;52.010;4.446;2023-04-25T04:52:35;17.95;;;2.85;;
41293;SDS011;27037;52.010;4.446;2023-04-25T04:55:02;13.68;;;2.30;;
41293;SDS011;27037;52.010;4.446;2023-04-25T04:57:30;15.27;;;2.67;;
41293;SDS011;27037;52.010;4.446;2023-04-25T04:59:57;11.50;;;2.10;;
41293;SDS011;27037;52.010;4.446;2023-04-25T05:02:23;15.95;;;3.15;;
41293;SDS011;27037;52.010;4.446;2023-04-25T05:04:49;12.98;;;2.35;;
41293;SDS011;27037;52.010;4.446;2023-04-25T05:07:16;19.30;;;2.78;;
41293;SDS011;27037;52.010;4.446;2023-04-25T05:09:42;12.98;;;2.50;;
41293;SDS011;27037;52.010;4.446;2023-04-25T05:12:07;16.48;;;2.95;;
41293;SDS011;27037;52.010;4.446;2023-04-25T05:14:33;14.57;;;2.92;;
41293;SDS011;27037;52.010;4.446;2023-04-25T05:16:59;13.48;;;2.92;;
41293;SDS011;27037;52.010;4.446;2023-04-25T05:19:25;17.25;;;2.72;;
41293;SDS011;27037;52.010;4.446;2023-04-25T05:21:51;12.80;;;2.30;;
41293;SDS011;27037;52.010;4.446;2023-04-25T05:24:17;12.25;;;3.28;;
41293;SDS011;27037;52.010;4.446;2023-04-25T05:26:42;11.82;;;2.70;;
41293;SDS011;27037;52.010;4.446;2023-04-25T05:29:08;10.93;;;2.30;;
41293;SDS011;27037;52.010;4.446;2023-04-25T05:31:34;11.38;;;1.95;;
41293;SDS011;27037;52.010;4.446;2023-04-25T05:34:00;7.95;;;1.73;;
41293;SDS011;27037;52.010;4.446;2023-04-25T05:36:26;11.95;;;2.10;;
41293;SDS011;27037;52.010;4.446;2023-04-25T05:38:52;14.20;;;2.05;;
41293;SDS011;27037;52.010;4.446;2023-04-25T05:41:18;9.18;;;1.80;;
41293;SDS011;27037;52.010;4.446;2023-04-25T05:43:43;11.63;;;2.40;;
41293;SDS011;27037;52.010;4.446;2023-04-25T05:46:10;13.48;;;1.90;;
41293;SDS011;27037;52.010;4.446;2023-04-25T05:48:36;10.15;;;2.05;;
41293;SDS011;27037;52.010;4.446;2023-04-25T05:51:02;12.27;;;1.92;;
41293;SDS011;27037;52.010;4.446;2023-04-25T05:53:28;10.25;;;2.03;;
41293;SDS011;27037;52.010;4.446;2023-04-25T05:55:53;6.13;;;1.55;;
41293;SDS011;27037;52.010;4.446;2023-04-25T05:58:19;7.70;;;1.60;;
41293;SDS011;27037;52.010;4.446;2023-04-25T06:00:45;7.75;;;1.73;;
41293;SDS011;27037;52.010;4.446;2023-04-25T06:03:11;5.35;;;1.77;;
41293;SDS011;27037;52.010;4.446;2023-04-25T06:05:39;6.20;;;1.60;;
41293;SDS011;27037;52.010;4.446;2023-04-25T06:08:06;5.50;;;1.50;;
41293;SDS011;27037;52.010;4.446;2023-04-25T06:10:32;7.78;;;1.52;;
41293;SDS011;27037;52.010;4.446;2023-04-25T06:12:57;13.13;;;1.80;;
41293;SDS011;27037;52.010;4.446;2023-04-25T06:15:23;3.60;;;1.20;;
41293;SDS011;27037;52.010;4.446;2023-04-25T06:17:48;11.20;;;1.70;;
41293;SDS011;27037;52.010;4.446;2023-04-25T06:20:14;6.30;;;1.75;;
41293;SDS011;27037;52.010;4.446;2023-04-25T06:22:39;5.15;;;1.60;;
41293;SDS011;27037;52.010;4.446;2023-04-25T06:25:05;9.88;;;1.73;;
41293;SDS011;27037;52.010;4.446;2023-04-25T06:27:32;5.38;;;1.30;;
41293;SDS011;27037;52.010;4.446;2023-04-25T06:29:58;6.88;;;1.75;;
41293;SDS011;27037;52.010;4.446;2023-04-25T06:32:24;6.40;;;1.60;;
41293;SDS011;27037;52.010;4.446;2023-04-25T06:34:50;6.30;;;1.75;;
41293;SDS011;27037;52.010;4.446;2023-04-25T06:37:15;9.98;;;2.10;;
41293;SDS011;27037;52.010;4.446;2023-04-25T06:39:41;7.13;;;1.50;;
41293;SDS011;27037;52.010;4.446;2023-04-25T06:42:06;7.95;;;1.55;;
41293;SDS011;27037;52.010;4.446;2023-04-25T06:44:32;8.25;;;1.60;;
41293;SDS011;27037;52.010;4.446;2023-04-25T06:46:57;6.18;;;1.50;;
41293;SDS011;27037;52.010;4.446;2023-04-25T06:49:23;4.70;;;1.48;;
41293;SDS011;27037;52.010;4.446;2023-04-25T06:51:49;5.20;;;1.70;;
41293;SDS011;27037;52.010;4.446;2023-04-25T06:54:14;7.18;;;1.58;;
41293;SDS011;27037;52.010;4.446;2023-04-25T06:56:40;8.38;;;1.85;;
41293;SDS011;27037;52.010;4.446;2023-04-25T06:59:05;7.15;;;1.80;;
41293;SDS011;27037;52.010;4.446;2023-04-25T07:01:31;10.73;;;1.77;;
41293;SDS011;27037;52.010;4.446;2023-04-25T07:03:56;5.93;;;1.75;;
41293;SDS011;27037;52.010;4.446;2023-04-25T07:06:22;3.88;;;1.63;;
41293;SDS011;27037;52.010;4.446;2023-04-25T07:08:48;12.77;;;1.90;;
41293;SDS011;27037;52.010;4.446;2023-04-25T07:11:13;4.70;;;1.45;;
41293;SDS011;27037;52.010;4.446;2023-04-25T07:13:39;7.10;;;1.88;;
41293;SDS011;27037;52.010;4.446;2023-04-25T07:16:05;7.82;;;1.77;;
41293;SDS011;27037;52.010;4.446;2023-04-25T07:18:30;13.13;;;2.10;;
41293;SDS011;27037;52.010;4.446;2023-04-25T07:20:56;8.93;;;1.90;;
41293;SDS011;27037;52.010;4.446;2023-04-25T07:23:22;8.20;;;1.80;;
41293;SDS011;27037;52.010;4.446;2023-04-25T07:25:47;10.90;;;2.25;;
41293;SDS011;27037;52.010;4.446;2023-04-25T07:28:13;8.05;;;1.80;;
41293;SDS011;27037;52.010;4.446;2023-04-25T07:30:39;8.85;;;2.03;;
41293;SDS011;27037;52.010;4.446;2023-04-25T07:33:04;13.05;;;1.58;;
41293;SDS011;27037;52.010;4.446;2023-04-25T07:35:30;9.82;;;1.38;;
41293;SDS011;27037;52.010;4.446;2023-04-25T07:37:56;10.90;;;1.88;;
41293;SDS011;27037;52.010;4.446;2023-04-25T07:40:21;6.95;;;1.50;;
41293;SDS011;27037;52.010;4.446;2023-04-25T07:42:47;13.68;;;1.40;;
41293;SDS011;27037;52.010;4.446;2023-04-25T07:45:13;9.32;;;1.58;;
41293;SDS011;27037;52.010;4.446;2023-04-25T07:47:38;9.02;;;1.70;;
41293;SDS011;27037;52.010;4.446;2023-04-25T07:50:04;8.23;;;1.48;;
41293;SDS011;27037;52.010;4.446;2023-04-25T07:52:30;9.68;;;1.92;;
41293;SDS011;27037;52.010;4.446;2023-04-25T07:54:56;5.57;;;1.30;;
41293;SDS011;27037;52.010;4.446;2023-04-25T07:57:23;5.90;;;1.13;;
41293;SDS011;27037;52.010;4.446;2023-04-25T07:59:49;11.27;;;1.35;;
41293;SDS011;27037;52.010;4.446;2023-04-25T08:02:15;13.95;;;1.40;;
41293;SDS011;27037;52.010;4.446;2023-04-25T08:04:40;7.88;;;1.30;;
41293;SDS011;27037;52.010;4.446;2023-04-25T08:07:06;8.85;;;1.35;;
41293;SDS011;27037;52.010;4.446;2023-04-25T08:09:31;12.85;;;1.33;;
41293;SDS011;27037;52.010;4.446;2023-04-25T08:12:01;10.77;;;1.65;;
41293;SDS011;27037;52.010;4.446;2023-04-25T08:14:28;9.85;;;1.33;;
41293;SDS011;27037;52.010;4.446;2023-04-25T08:16:56;8.15;;;1.35;;
41293;SDS011;27037;52.010;4.446;2023-04-25T08:19:22;9.63;;;1.48;;
41293;SDS011;27037;52.010;4.446;2023-04-25T08:21:47;8.73;;;1.60;;
41293;SDS011;27037;52.010;4.446;2023-04-25T08:24:13;9.20;;;1.67;;
41293;SDS011;27037;52.010;4.446;2023-04-25T08:26:38;9.35;;;1.60;;
41293;SDS011;27037;52.010;4.446;2023-04-25T08:29:05;10.10;;;1.85;;
41293;SDS011;27037;52.010;4.446;2023-04-25T08:31:31;8.40;;;1.50;;
41293;SDS011;27037;52.010;4.446;2023-04-25T08:33:57;7.88;;;1.20;;
41293;SDS011;27037;52.010;4.446;2023-04-25T08:36:22;7.45;;;1.40;;
41293;SDS011;27037;52.010;4.446;2023-04-25T08:38:48;9.52;;;1.27;;
41293;SDS011;27037;52.010;4.446;2023-04-25T08:41:14;9.07;;;1.58;;
41293;SDS011;27037;52.010;4.446;2023-04-25T08:43:42;10.90;;;1.38;;
41293;SDS011;27037;52.010;4.446;2023-04-25T08:46:08;8.32;;;1.40;;
41293;SDS011;27037;52.010;4.446;2023-04-25T08:48:36;7.60;;;1.30;;
41293;SDS011;27037;52.010;4.446;2023-04-25T08:51:02;14.95;;;1.60;;
41293;SDS011;27037;52.010;4.446;2023-04-25T08:53:32;15.38;;;1.92;;
41293;SDS011;27037;52.010;4.446;2023-04-25T08:55:59;9.02;;;1.45;;
41293;SDS011;27037;52.010;4.446;2023-04-25T08:58:29;10.10;;;1.63;;
41293;SDS011;27037;52.010;4.446;2023-04-25T09:00:55;9.10;;;1.35;;
41293;SDS011;27037;52.010;4.446;2023-04-25T09:03:21;10.07;;;1.33;;
41293;SDS011;27037;52.010;4.446;2023-04-25T09:05:46;9.25;;;1.35;;
41293;SDS011;27037;52.010;4.446;2023-04-25T09:08:12;7.95;;;1.40;;
41293;SDS011;27037;52.010;4.446;2023-04-25T09:10:38;6.85;;;1.20;;
41293;SDS011;27037;52.010;4.446;2023-04-25T09:13:06;5.68;;;1.13;;
41293;SDS011;27037;52.010;4.446;2023-04-25T09:18:12;9.77;;;1.30;;
41293;SDS011;27037;52.010;4.446;2023-04-25T09:20:41;9.65;;;1.52;;
41293;SDS011;27037;52.010;4.446;2023-04-25T09:23:08;5.25;;;1.20;;
41293;SDS011;27037;52.010;4.446;2023-04-25T09:25:37;7.75;;;1.40;;
41293;SDS011;27037;52.010;4.446;2023-04-25T09:28:08;8.65;;;1.55;;
41293;SDS011;27037;52.010;4.446;2023-04-25T09:30:34;7.68;;;1.27;;
41293;SDS011;27037;52.010;4.446;2023-04-25T09:33:04;7.78;;;1.40;;
41293;SDS011;27037;52.010;4.446;2023-04-25T09:35:34;6.50;;;1.17;;
41293;SDS011;27037;52.010;4.446;2023-04-25T09:38:06;6.90;;;1.17;;
41293;SDS011;27037;52.010;4.446;2023-04-25T09:40:43;11.47;;;1.67;;
41293;SDS011;27037;52.010;4.446;2023-04-25T09:43:20;8.48;;;1.40;;
41293;SDS011;27037;52.010;4.446;2023-04-25T09:45:46;9.02;;;1.35;;
41293;SDS011;27037;52.010;4.446;2023-04-25T09:48:20;6.03;;;1.27;;
41293;SDS011;27037;52.010;4.446;2023-04-25T09:53:35;7.38;;;1.42;;
41293;SDS011;27037;52.010;4.446;2023-04-25T09:56:06;7.40;;;1.58;;
41293;SDS011;27037;52.010;4.446;2023-04-25T09:58:33;5.95;;;1.17;;
41293;SDS011;27037;52.010;4.446;2023-04-25T10:01:01;9.27;;;1.42;;
41293;SDS011;27037;52.010;4.446;2023-04-25T10:03:31;8.38;;;1.52;;
41293;SDS011;27037;52.010;4.446;2023-04-25T10:06:06;11.52;;;1.50;;
41293;SDS011;27037;52.010;4.446;2023-04-25T10:11:03;9.88;;;1.63;;
41293;SDS011;27037;52.010;4.446;2023-04-25T10:13:30;10.35;;;1.38;;
41293;SDS011;27037;52.010;4.446;2023-04-25T10:16:00;12.40;;;1.70;;
41293;SDS011;27037;52.010;4.446;2023-04-25T10:18:28;8.77;;;1.40;;
41293;SDS011;27037;52.010;4.446;2023-04-25T10:20:55;9.88;;;1.63;;
41293;SDS011;27037;52.010;4.446;2023-04-25T10:23:23;10.25;;;1.42;;
41293;SDS011;27037;52.010;4.446;2023-04-25T10:25:50;7.55;;;1.52;;
41293;SDS011;27037;52.010;4.446;2023-04-25T10:28:17;13.10;;;2.00;;
41293;SDS011;27037;52.010;4.446;2023-04-25T10:31:02;11.18;;;1.58;;
41293;SDS011;27037;52.010;4.446;2023-04-25T10:33:32;10.18;;;1.70;;
41293;SDS011;27037;52.010;4.446;2023-04-25T10:35:58;8.20;;;1.42;;
41293;SDS011;27037;52.010;4.446;2023-04-25T10:38:33;10.77;;;1.67;;
41293;SDS011;27037;52.010;4.446;2023-04-25T10:41:02;7.13;;;1.67;;
41293;SDS011;27037;52.010;4.446;2023-04-25T10:43:37;5.20;;;1.27;;
41293;SDS011;27037;52.010;4.446;2023-04-25T10:46:25;6.60;;;1.10;;
41293;SDS011;27037;52.010;4.446;2023-04-25T10:48:57;8.57;;;1.50;;
41293;SDS011;27037;52.010;4.446;2023-04-25T10:51:31;6.78;;;1.60;;
41293;SDS011;27037;52.010;4.446;2023-04-25T10:56:31;6.32;;;1.40;;
41293;SDS011;27037;52.010;4.446;2023-04-25T10:59:09;8.35;;;1.30;;
41293;SDS011;27037;52.010;4.446;2023-04-25T11:01:45;8.32;;;1.52;;
41293;SDS011;27037;52.010;4.446;2023-04-25T11:09:18;9.70;;;1.60;;
41293;SDS011;27037;52.010;4.446;2023-04-25T11:11:52;11.15;;;1.15;;
41293;SDS011;27037;52.010;4.446;2023-04-25T11:14:21;9.85;;;1.15;;
41293;SDS011;27037;52.010;4.446;2023-04-25T11:16:52;10.30;;;1.38;;
41293;SDS011;27037;52.010;4.446;2023-04-25T11:19:19;8.35;;;1.17;;
41293;SDS011;27037;52.010;4.446;2023-04-25T11:21:45;8.00;;;1.52;;
41293;SDS011;27037;52.010;4.446;2023-04-25T11:24:11;6.65;;;1.45;;
41293;SDS011;27037;52.010;4.446;2023-04-25T11:26:37;5.43;;;1.17;;
41293;SDS011;27037;52.010;4.446;2023-04-25T11:29:02;7.97;;;1.48;;
41293;SDS011;27037;52.010;4.446;2023-04-25T11:31:28;6.53;;;1.70;;
41293;SDS011;27037;52.010;4.446;2023-04-25T11:33:56;5.18;;;1.42;;
41293;SDS011;27037;52.010;4.446;2023-04-25T11:36:23;8.52;;;1.30;;
41293;SDS011;27037;52.010;4.446;2023-04-25T11:38:50;4.95;;;0.98;;
41293;SDS011;27037;52.010;4.446;2023-04-25T11:41:16;7.82;;;1.40;;
41293;SDS011;27037;52.010;4.446;2023-04-25T11:43:43;11.75;;;1.40;;
41293;SDS011;27037;52.010;4.446;2023-04-25T11:46:08;7.07;;;1.50;;
41293;SDS011;27037;52.010;4.446;2023-04-25T11:48:38;8.32;;;1.50;;
41293;SDS011;27037;52.010;4.446;2023-04-25T11:51:04;7.93;;;1.30;;
41293;SDS011;27037;52.010;4.446;2023-04-25T11:53:30;8.63;;;1.30;;
41293;SDS011;27037;52.010;4.446;2023-04-25T11:55:56;5.80;;;1.55;;
41293;SDS011;27037;52.010;4.446;2023-04-25T11:58:22;6.03;;;1.35;;
41293;SDS011;27037;52.010;4.446;2023-04-25T12:00:47;5.82;;;1.38;;
41293;SDS011;27037;52.010;4.446;2023-04-25T12:03:13;7.93;;;1.30;;
41293;SDS011;27037;52.010;4.446;2023-04-25T12:05:39;9.23;;;1.35;;
41293;SDS011;27037;52.010;4.446;2023-04-25T12:08:11;8.23;;;1.42;;
41293;SDS011;27037;52.010;4.446;2023-04-25T12:10:37;6.65;;;1.15;;
41293;SDS011;27037;52.010;4.446;2023-04-25T12:13:18;4.80;;;1.38;;
41293;SDS011;27037;52.010;4.446;2023-04-25T12:15:44;8.25;;;1.20;;
41293;SDS011;27037;52.010;4.446;2023-04-25T12:18:10;5.20;;;1.42;;
41293;SDS011;27037;52.010;4.446;2023-04-25T12:20:35;6.50;;;1.35;;
41293;SDS011;27037;52.010;4.446;2023-04-25T12:23:01;10.40;;;1.60;;
41293;SDS011;27037;52.010;4.446;2023-04-25T12:25:36;8.05;;;1.60;;
41293;SDS011;27037;52.010;4.446;2023-04-25T12:28:36;7.60;;;1.20;;
41293;SDS011;27037;52.010;4.446;2023-04-25T12:33:29;6.50;;;1.10;;
41293;SDS011;27037;52.010;4.446;2023-04-25T12:35:56;9.00;;;1.45;;
41293;SDS011;27037;52.010;4.446;2023-04-25T12:38:33;7.22;;;1.42;;
41293;SDS011;27037;52.010;4.446;2023-04-25T12:41:01;5.63;;;1.23;;
41293;SDS011;27037;52.010;4.446;2023-04-25T12:43:27;8.27;;;1.60;;
41293;SDS011;27037;52.010;4.446;2023-04-25T12:45:53;8.35;;;1.58;;
41293;SDS011;27037;52.010;4.446;2023-04-25T12:48:20;8.98;;;1.55;;
41293;SDS011;27037;52.010;4.446;2023-04-25T12:50:46;8.05;;;1.33;;
41293;SDS011;27037;52.010;4.446;2023-04-25T12:53:16;8.25;;;1.30;;
41293;SDS011;27037;52.010;4.446;2023-04-25T12:55:43;10.07;;;1.38;;
41293;SDS011;27037;52.010;4.446;2023-04-25T12:58:11;5.35;;;1.25;;
41293;SDS011;27037;52.010;4.446;2023-04-25T13:00:36;9.27;;;1.65;;
41293;SDS011;27037;52.010;4.446;2023-04-25T13:03:02;12.05;;;1.65;;
41293;SDS011;27037;52.010;4.446;2023-04-25T13:05:29;9.93;;;1.48;;
41293;SDS011;27037;52.010;4.446;2023-04-25T13:07:55;9.15;;;1.55;;
41293;SDS011;27037;52.010;4.446;2023-04-25T13:10:21;7.63;;;1.40;;
41293;SDS011;27037;52.010;4.446;2023-04-25T13:12:47;6.20;;;1.45;;
41293;SDS011;27037;52.010;4.446;2023-04-25T13:15:12;5.22;;;1.40;;
41293;SDS011;27037;52.010;4.446;2023-04-25T13:17:40;8.45;;;1.52;;
41293;SDS011;27037;52.010;4.446;2023-04-25T13:20:06;5.85;;;1.23;;
41293;SDS011;27037;52.010;4.446;2023-04-25T13:22:34;7.60;;;1.40;;
41293;SDS011;27037;52.010;4.446;2023-04-25T13:25:02;6.82;;;1.48;;
41293;SDS011;27037;52.010;4.446;2023-04-25T13:27:28;5.53;;;1.23;;
41293;SDS011;27037;52.010;4.446;2023-04-25T13:29:53;9.40;;;1.70;;
41293;SDS011;27037;52.010;4.446;2023-04-25T13:32:19;10.43;;;1.73;;
41293;SDS011;27037;52.010;4.446;2023-04-25T13:34:45;7.15;;;1.33;;
41293;SDS011;27037;52.010;4.446;2023-04-25T13:37:10;8.95;;;1.70;;
41293;SDS011;27037;52.010;4.446;2023-04-25T13:39:36;9.20;;;1.67;;
41293;SDS011;27037;52.010;4.446;2023-04-25T13:42:02;8.43;;;1.70;;
41293;SDS011;27037;52.010;4.446;2023-04-25T13:44:28;8.15;;;1.35;;
41293;SDS011;27037;52.010;4.446;2023-04-25T13:46:53;11.65;;;1.48;;
41293;SDS011;27037;52.010;4.446;2023-04-25T13:49:19;5.38;;;1.60;;
41293;SDS011;27037;52.010;4.446;2023-04-25T13:51:45;5.93;;;1.40;;
41293;SDS011;27037;52.010;4.446;2023-04-25T13:54:10;4.95;;;1.10;;
41293;SDS011;27037;52.010;4.446;2023-04-25T13:56:36;14.27;;;1.98;;
41293;SDS011;27037;52.010;4.446;2023-04-25T13:59:02;9.55;;;1.60;;
41293;SDS011;27037;52.010;4.446;2023-04-25T14:01:27;7.45;;;1.65;;
41293;SDS011;27037;52.010;4.446;2023-04-25T14:03:55;5.70;;;1.20;;
41293;SDS011;27037;52.010;4.446;2023-04-25T14:06:21;5.65;;;1.20;;
41293;SDS011;27037;52.010;4.446;2023-04-25T14:08:47;5.13;;;1.33;;
41293;SDS011;27037;52.010;4.446;2023-04-25T14:11:14;5.78;;;1.25;;
41293;SDS011;27037;52.010;4.446;2023-04-25T14:13:39;7.03;;;1.40;;
41293;SDS011;27037;52.010;4.446;2023-04-25T14:16:05;5.75;;;1.20;;
41293;SDS011;27037;52.010;4.446;2023-04-25T14:18:30;6.43;;;1.33;;
41293;SDS011;27037;52.010;4.446;2023-04-25T14:20:56;5.80;;;1.52;;
41293;SDS011;27037;52.010;4.446;2023-04-25T14:23:22;5.95;;;1.30;;
41293;SDS011;27037;52.010;4.446;2023-04-25T14:25:47;3.97;;;1.10;;
41293;SDS011;27037;52.010;4.446;2023-04-25T14:28:13;4.75;;;1.02;;
41293;SDS011;27037;52.010;4.446;2023-04-25T14:30:38;7.40;;;1.40;;
41293;SDS011;27037;52.010;4.446;2023-04-25T14:33:04;9.88;;;1.40;;
41293;SDS011;27037;52.010;4.446;2023-04-25T14:35:30;5.15;;;1.25;;
41293;SDS011;27037;52.010;4.446;2023-04-25T14:37:55;5.75;;;1.20;;
41293;SDS011;27037;52.010;4.446;2023-04-25T14:40:21;6.43;;;1.40;;
41293;SDS011;27037;52.010;4.446;2023-04-25T14:42:48;7.22;;;1.23;;
41293;SDS011;27037;52.010;4.446;2023-04-25T14:45:15;4.03;;;1.20;;
41293;SDS011;27037;52.010;4.446;2023-04-25T14:47:40;5.68;;;1.40;;
41293;SDS011;27037;52.010;4.446;2023-04-25T14:50:06;7.70;;;1.30;;
41293;SDS011;27037;52.010;4.446;2023-04-25T14:52:33;10.32;;;1.50;;
41293;SDS011;27037;52.010;4.446;2023-04-25T14:54:59;10.88;;;1.67;;